Time;durP1;ratioP1;P1;durP2;ratioP2;P2;SDS_P1;SDS_P2;PMS_P1;PMS_P2;Temp;Humidity;BMP_temperature;BMP_pressure;BME280_temperature;BME280_humidity;BME280_pressure;Samples;Min_cycle;Max_cycle;Signal;HPM_P1;HPM_P2
2022/01/02 00:01:59;;;;;;;10.65;8.63;;;6.80;99.90;;;;;;5088769;28;20282;-82
2022/01/02 00:04:30;;;;;;;13.63;10.18;;;6.80;99.90;;;;;;5072122;28;20199;-83
2022/01/02 00:24:07;;;;;;;12.55;10.45;;;6.40;99.90;;;;;;6051399;22;20902;-83
2022/01/02 00:26:39;;;;;;;15.20;11.13;;;6.40;99.90;;;;;;5061481;28;20245;-83
2022/01/02 00:29:07;;;;;;;13.32;10.40;;;6.40;99.90;;;;;;5064117;28;20720;-84
2022/01/02 00:31:35;;;;;;;13.05;10.70;;;6.30;99.90;;;;;;5063755;28;20222;-84
2022/01/02 00:34:04;;;;;;;12.38;10.35;;;6.30;99.90;;;;;;5063928;28;20297;-84
2022/01/02 00:36:32;;;;;;;15.18;11.07;;;6.20;99.90;;;;;;5064233;28;20257;-83
2022/01/02 00:38:59;;;;;;;14.60;10.50;;;6.20;99.90;;;;;;5062267;28;20268;-84
2022/01/02 00:41:35;;;;;;;14.75;10.43;;;6.10;99.90;;;;;;5059499;28;20208;-83
2022/01/02 00:44:09;;;;;;;10.38;8.40;;;6.20;99.90;;;;;;5059419;28;20225;-83
2022/01/02 00:46:47;;;;;;;13.15;9.43;;;6.20;99.90;;;;;;5065035;28;20202;-83
2022/01/02 00:49:21;;;;;;;15.70;9.23;;;6.10;99.90;;;;;;5067652;28;20226;-84
2022/01/02 00:51:56;;;;;;;12.57;9.35;;;6.10;99.90;;;;;;5070732;28;20193;-83
2022/01/02 00:54:27;;;;;;;14.27;9.18;;;6.10;99.90;;;;;;5048630;28;20233;-82
2022/01/02 00:57:03;;;;;;;13.63;9.07;;;6.00;99.90;;;;;;5048997;28;20195;-83
2022/01/02 00:59:32;;;;;;;11.52;8.40;;;6.00;99.90;;;;;;5048909;28;20233;-83
2022/01/02 01:02:03;;;;;;;11.23;8.32;;;6.00;99.90;;;;;;5053542;28;20207;-84
2022/01/02 01:04:31;;;;;;;13.45;8.65;;;6.00;99.90;;;;;;5066632;28;20230;-84
2022/01/02 01:07:03;;;;;;;9.57;8.25;;;6.10;99.90;;;;;;5077402;28;20206;-83
2022/01/02 01:09:32;;;;;;;16.20;8.48;;;6.10;99.90;;;;;;5077901;28;20198;-82
2022/01/02 01:12:01;;;;;;;13.05;7.97;;;6.10;99.90;;;;;;5069049;28;20191;-83
2022/01/02 01:14:30;;;;;;;9.60;7.32;;;6.00;99.90;;;;;;5055939;28;20235;-83
2022/01/02 01:16:58;;;;;;;9.73;6.95;;;6.00;99.90;;;;;;5062030;28;20198;-83
2022/01/02 01:19:25;;;;;;;8.77;7.15;;;5.90;99.90;;;;;;5069594;28;20310;-83
2022/01/02 01:21:52;;;;;;;12.38;7.00;;;5.80;99.90;;;;;;5066833;28;20233;-83
2022/01/02 01:24:20;;;;;;;8.40;6.78;;;5.80;99.90;;;;;;5071214;28;20210;-82
2022/01/02 01:26:50;;;;;;;9.27;7.10;;;5.80;99.90;;;;;;5072840;28;20241;-85
2022/01/02 01:29:18;;;;;;;9.07;6.82;;;5.80;99.90;;;;;;5077409;28;20230;-84
2022/01/02 01:31:46;;;;;;;11.88;8.80;;;5.80;99.90;;;;;;5077985;28;20221;-85
2022/01/02 01:34:14;;;;;;;8.82;7.82;;;5.80;99.90;;;;;;5077013;28;20191;-85
2022/01/02 01:36:41;;;;;;;13.80;9.35;;;5.70;99.90;;;;;;5072230;28;20206;-84
2022/01/02 01:39:08;;;;;;;8.35;7.22;;;5.70;99.90;;;;;;5075734;28;20190;-85
2022/01/02 01:41:38;;;;;;;9.65;7.60;;;5.60;99.90;;;;;;5077523;28;20191;-83
2022/01/02 01:44:21;;;;;;;12.48;7.68;;;5.60;99.90;;;;;;5076846;28;20207;-83
2022/01/02 01:46:54;;;;;;;10.80;7.93;;;5.60;99.90;;;;;;5075471;28;20206;-82
2022/01/02 01:49:24;;;;;;;11.35;9.15;;;5.60;99.90;;;;;;5072843;28;20218;-83
2022/01/02 01:51:51;;;;;;;10.13;7.28;;;5.60;99.90;;;;;;5069664;28;20233;-83
2022/01/02 01:54:20;;;;;;;10.82;7.97;;;5.70;99.90;;;;;;5052865;28;20234;-83
2022/01/02 01:56:49;;;;;;;9.35;6.70;;;5.60;99.90;;;;;;5053271;28;20279;-83
2022/01/02 01:59:17;;;;;;;10.23;8.35;;;5.60;99.90;;;;;;5057458;28;20188;-84
2022/01/02 02:01:44;;;;;;;8.80;7.88;;;5.60;99.90;;;;;;5057233;28;20225;-84
2022/01/02 02:04:16;;;;;;;9.85;8.15;;;5.60;99.90;;;;;;5073238;28;20199;-83
2022/01/02 02:06:43;;;;;;;11.00;9.05;;;5.60;99.90;;;;;;5061649;28;20192;-83
2022/01/02 02:09:11;;;;;;;11.18;9.27;;;5.60;99.90;;;;;;5056172;28;20223;-84
2022/01/02 02:11:39;;;;;;;11.48;9.50;;;5.50;99.90;;;;;;5066815;28;20207;-83
2022/01/02 02:14:07;;;;;;;9.65;8.00;;;5.50;99.90;;;;;;5049319;28;20209;-83
2022/01/02 02:16:35;;;;;;;12.63;9.00;;;5.40;99.90;;;;;;5049590;28;20217;-83
2022/01/02 02:19:01;;;;;;;12.18;9.27;;;5.40;99.90;;;;;;5064095;28;20202;-82
2022/01/02 02:21:32;;;;;;;13.50;8.45;;;5.40;99.90;;;;;;5055732;28;20211;-84
2022/01/02 02:23:59;;;;;;;11.90;9.85;;;5.40;99.90;;;;;;5048359;28;20210;-83
2022/01/02 02:26:26;;;;;;;11.32;9.45;;;5.40;99.90;;;;;;5058732;28;20213;-83
2022/01/02 02:28:53;;;;;;;12.80;9.60;;;5.40;99.90;;;;;;5067342;28;20230;-82
2022/01/02 02:31:21;;;;;;;16.70;10.95;;;5.40;99.90;;;;;;5057534;28;20230;-82
2022/01/02 02:33:48;;;;;;;15.15;10.07;;;5.40;99.90;;;;;;5047140;28;20215;-82
2022/01/02 02:36:15;;;;;;;13.70;11.25;;;5.40;99.90;;;;;;5051739;28;20215;-82
2022/01/02 02:38:44;;;;;;;11.60;9.43;;;5.30;99.90;;;;;;5047162;28;20226;-83
2022/01/02 02:41:11;;;;;;;12.85;9.77;;;5.30;99.90;;;;;;5048123;28;20218;-83
2022/01/02 02:43:45;;;;;;;10.98;9.55;;;5.30;99.90;;;;;;5043767;28;20238;-82
2022/01/02 02:49:01;;;;;;;14.07;9.13;;;5.20;99.90;;;;;;5065653;28;20240;-82
2022/01/02 02:51:34;;;;;;;12.80;9.18;;;5.20;99.90;;;;;;5065900;28;20206;-82
2022/01/02 02:54:23;;;;;;;12.90;9.80;;;5.20;99.90;;;;;;5026298;28;20747;-83
2022/01/02 02:56:56;;;;;;;11.57;8.32;;;5.20;99.90;;;;;;5026719;28;20203;-82
2022/01/02 02:59:28;;;;;;;15.68;8.95;;;5.20;99.90;;;;;;5028575;28;20208;-83
2022/01/02 03:01:56;;;;;;;11.48;8.05;;;5.20;99.90;;;;;;5028918;28;20280;-82
2022/01/02 03:04:24;;;;;;;15.55;9.65;;;5.20;99.90;;;;;;5017565;28;20320;-83
2022/01/02 03:06:52;;;;;;;10.45;8.32;;;5.00;99.90;;;;;;5016589;28;20302;-83
2022/01/02 03:09:36;;;;;;;11.25;8.15;;;5.00;99.90;;;;;;5015391;28;20606;-83
2022/01/02 03:12:04;;;;;;;9.15;7.53;;;4.90;99.90;;;;;;5023183;28;20225;-83
2022/01/02 03:14:32;;;;;;;11.07;7.47;;;4.90;99.90;;;;;;5050453;28;20438;-83
2022/01/02 03:16:59;;;;;;;9.73;7.68;;;5.00;99.90;;;;;;5065794;28;20218;-83
2022/01/02 03:19:26;;;;;;;11.52;8.80;;;5.00;99.90;;;;;;5054866;28;20222;-82
2022/01/02 03:21:53;;;;;;;11.75;8.93;;;5.00;99.90;;;;;;5040437;28;20238;-82
2022/01/02 03:24:21;;;;;;;12.38;9.70;;;5.00;99.90;;;;;;5049206;28;20215;-82
2022/01/02 03:26:48;;;;;;;11.63;9.25;;;5.10;99.90;;;;;;5060259;28;20662;-83
2022/01/02 03:29:15;;;;;;;11.65;9.18;;;5.00;99.90;;;;;;5048035;28;20229;-83
2022/01/02 03:31:42;;;;;;;10.35;8.63;;;5.00;99.90;;;;;;5040938;28;20212;-83
2022/01/02 03:34:10;;;;;;;11.95;9.63;;;5.00;99.90;;;;;;5064266;28;20221;-85
2022/01/02 03:36:37;;;;;;;9.48;7.75;;;5.10;99.90;;;;;;5075454;28;20217;-82
2022/01/02 03:39:05;;;;;;;14.23;8.10;;;5.20;99.90;;;;;;5078646;28;20206;-83
2022/01/02 03:41:33;;;;;;;8.95;8.02;;;5.20;99.90;;;;;;5079746;28;20233;-83
2022/01/02 03:44:00;;;;;;;11.15;8.68;;;5.20;99.90;;;;;;5061582;28;20196;-84
2022/01/02 03:46:27;;;;;;;11.77;8.10;;;5.20;99.90;;;;;;5060063;28;20205;-83
2022/01/02 03:48:54;;;;;;;11.25;7.55;;;5.30;99.90;;;;;;5059781;28;20218;-83
2022/01/02 03:51:21;;;;;;;10.52;7.75;;;5.30;99.90;;;;;;5058081;28;20195;-82
2022/01/02 03:53:49;;;;;;;10.60;7.70;;;5.30;99.90;;;;;;5050092;28;20217;-83
2022/01/02 03:56:16;;;;;;;9.50;8.05;;;5.30;99.90;;;;;;5052917;28;20235;-83
2022/01/02 03:58:44;;;;;;;8.98;6.68;;;5.30;99.90;;;;;;5056066;28;20207;-83
2022/01/02 04:01:11;;;;;;;8.35;7.00;;;5.40;99.90;;;;;;5062162;28;20202;-82
2022/01/02 04:03:38;;;;;;;9.25;7.05;;;5.40;99.90;;;;;;5051533;28;20237;-82
2022/01/02 04:06:05;;;;;;;10.30;6.97;;;5.50;99.90;;;;;;5044509;28;20223;-83
2022/01/02 04:08:32;;;;;;;7.30;6.55;;;5.50;99.90;;;;;;5054597;28;20226;-82
2022/01/02 04:10:59;;;;;;;10.05;7.63;;;5.50;99.90;;;;;;5065753;28;20240;-82
2022/01/02 04:13:26;;;;;;;13.88;7.85;;;5.60;99.90;;;;;;5064091;28;20226;-83
2022/01/02 04:15:54;;;;;;;8.32;7.10;;;5.60;99.90;;;;;;5071673;28;20237;-83
2022/01/02 04:18:21;;;;;;;10.57;7.30;;;5.70;99.90;;;;;;5075937;28;20210;-84
2022/01/02 04:20:49;;;;;;;9.57;6.93;;;5.70;99.90;;;;;;5074188;28;20195;-82
2022/01/02 04:23:16;;;;;;;10.43;7.95;;;5.70;99.90;;;;;;5073075;28;20245;-82
2022/01/02 04:25:43;;;;;;;11.00;7.93;;;5.70;99.90;;;;;;5069829;28;20234;-82
2022/01/02 04:28:10;;;;;;;10.77;7.32;;;5.70;99.90;;;;;;5074687;28;20237;-82
2022/01/02 04:30:37;;;;;;;9.65;6.43;;;5.80;99.90;;;;;;5071325;28;20380;-85
2022/01/02 04:33:05;;;;;;;8.68;7.05;;;5.80;99.90;;;;;;5068944;28;20202;-82
2022/01/02 04:35:32;;;;;;;8.90;6.93;;;5.80;99.90;;;;;;5072001;28;20245;-82
2022/01/02 04:37:59;;;;;;;8.15;7.20;;;5.90;99.90;;;;;;5075951;28;20201;-84
2022/01/02 04:40:27;;;;;;;10.02;7.90;;;5.90;99.90;;;;;;5076476;28;20190;-84
2022/01/02 04:42:54;;;;;;;8.10;6.88;;;5.90;99.90;;;;;;5056005;28;20219;-83
2022/01/02 04:45:21;;;;;;;8.82;7.15;;;6.00;99.90;;;;;;5049770;28;20254;-83
2022/01/02 04:47:48;;;;;;;9.88;8.07;;;5.90;99.90;;;;;;5050839;28;20206;-82
2022/01/02 04:50:16;;;;;;;11.45;7.88;;;5.90;99.90;;;;;;5050866;28;20604;-83
2022/01/02 04:52:43;;;;;;;12.30;8.00;;;5.70;99.90;;;;;;5069702;28;20234;-84
2022/01/02 04:55:11;;;;;;;8.90;8.00;;;5.80;99.90;;;;;;5075604;28;20344;-82
2022/01/02 04:57:37;;;;;;;9.85;8.10;;;5.80;99.90;;;;;;5059945;28;20207;-81
2022/01/02 05:00:07;;;;;;;9.90;7.75;;;5.70;99.90;;;;;;5066858;28;20206;-83
2022/01/02 05:02:35;;;;;;;8.70;7.80;;;5.70;99.90;;;;;;5070926;28;20207;-82
2022/01/02 05:05:01;;;;;;;9.90;8.13;;;5.80;99.90;;;;;;5061312;28;20253;-82
2022/01/02 05:07:30;;;;;;;8.93;7.55;;;5.70;99.90;;;;;;5051198;28;20200;-82
2022/01/02 05:09:57;;;;;;;9.93;7.32;;;5.70;99.90;;;;;;5048900;28;20246;-84
2022/01/02 05:12:24;;;;;;;8.15;6.75;;;5.80;99.90;;;;;;5052001;28;20257;-82
2022/01/02 05:14:51;;;;;;;9.30;7.85;;;5.80;99.90;;;;;;5053386;28;20218;-81
2022/01/02 05:17:18;;;;;;;10.50;7.60;;;5.70;99.90;;;;;;5055190;28;20218;-84
2022/01/02 05:19:45;;;;;;;8.88;6.45;;;5.70;99.90;;;;;;5055372;28;20211;-82
2022/01/02 05:22:12;;;;;;;8.95;7.40;;;5.70;99.90;;;;;;5054968;28;20249;-83
2022/01/02 05:24:40;;;;;;;10.27;6.95;;;5.70;99.90;;;;;;5058861;28;20226;-82
2022/01/02 05:27:07;;;;;;;8.40;6.60;;;5.70;99.90;;;;;;5073171;28;20245;-83
2022/01/02 05:29:34;;;;;;;7.20;6.47;;;5.70;99.90;;;;;;5054641;28;20222;-83
2022/01/02 05:32:01;;;;;;;9.68;6.93;;;5.70;99.90;;;;;;5055579;28;20267;-84
2022/01/02 05:34:28;;;;;;;7.93;6.45;;;5.70;99.90;;;;;;5070558;28;20655;-82
2022/01/02 05:36:55;;;;;;;7.97;6.57;;;5.60;99.90;;;;;;5058247;28;20227;-81
2022/01/02 05:39:23;;;;;;;10.15;6.70;;;5.60;99.90;;;;;;5049095;28;20203;-82
2022/01/02 05:41:52;;;;;;;10.10;6.90;;;5.60;99.90;;;;;;5054060;28;20215;-82
2022/01/02 05:44:20;;;;;;;7.72;6.65;;;5.60;99.90;;;;;;5067136;28;20222;-82
2022/01/02 05:46:48;;;;;;;9.85;6.20;;;5.60;99.90;;;;;;5067122;28;20233;-82
2022/01/02 05:49:15;;;;;;;8.00;6.32;;;5.60;99.90;;;;;;5065254;28;20202;-82
2022/01/02 05:51:42;;;;;;;9.73;7.25;;;5.70;99.90;;;;;;5057579;28;20214;-83
2022/01/02 05:54:10;;;;;;;7.03;6.00;;;5.70;99.90;;;;;;5044702;28;20207;-81
2022/01/02 05:56:37;;;;;;;9.07;7.18;;;5.80;99.90;;;;;;5043673;28;20226;-81
2022/01/02 05:59:05;;;;;;;7.72;6.93;;;5.80;99.90;;;;;;5044503;28;20313;-82
2022/01/02 06:01:32;;;;;;;8.98;6.70;;;5.80;99.90;;;;;;5052633;28;20202;-81
2022/01/02 06:04:00;;;;;;;8.40;7.22;;;5.90;99.90;;;;;;5063968;28;20210;-83
2022/01/02 06:06:27;;;;;;;8.45;6.85;;;5.80;99.90;;;;;;5061861;28;20198;-82
2022/01/02 06:08:54;;;;;;;8.10;7.30;;;5.80;99.90;;;;;;5062317;28;20210;-81
2022/01/02 06:11:21;;;;;;;11.10;8.25;;;5.80;99.90;;;;;;5063507;28;20287;-82
2022/01/02 06:13:48;;;;;;;9.23;7.57;;;5.80;99.90;;;;;;5065698;28;20206;-83
2022/01/02 06:16:16;;;;;;;7.97;7.18;;;5.80;99.90;;;;;;5067423;28;20233;-82
2022/01/02 06:18:43;;;;;;;7.18;6.47;;;5.80;99.90;;;;;;5074524;28;20197;-83
2022/01/02 06:21:10;;;;;;;7.05;6.25;;;5.80;99.90;;;;;;5072212;28;20217;-81
2022/01/02 06:23:37;;;;;;;7.15;5.68;;;5.80;99.90;;;;;;5072239;28;20207;-83
2022/01/02 06:26:04;;;;;;;7.15;6.13;;;5.80;99.90;;;;;;5075190;28;20218;-82
2022/01/02 06:28:31;;;;;;;8.23;7.30;;;5.80;99.90;;;;;;5064824;28;20241;-84
2022/01/02 06:30:58;;;;;;;8.43;6.95;;;5.80;99.90;;;;;;5075345;28;20226;-85
2022/01/02 06:33:26;;;;;;;10.30;6.80;;;5.80;99.90;;;;;;5076725;28;20201;-84
2022/01/02 06:35:53;;;;;;;8.95;6.80;;;5.80;99.90;;;;;;5057528;28;20284;-86
2022/01/02 06:38:22;;;;;;;9.93;7.22;;;5.80;99.90;;;;;;5095320;23;20256;-81
2022/01/02 06:40:49;;;;;;;7.38;6.40;;;5.90;99.90;;;;;;5081859;28;20198;-81
2022/01/02 06:43:17;;;;;;;8.80;6.80;;;5.90;99.90;;;;;;5080264;28;20216;-81
2022/01/02 06:45:45;;;;;;;10.45;7.28;;;5.90;99.90;;;;;;5081022;28;20265;-81
2022/01/02 06:48:12;;;;;;;8.63;6.45;;;5.90;99.90;;;;;;5080376;28;20233;-81
2022/01/02 07:57:52;;;;;;;9.57;6.57;;;6.00;99.90;;;;;;5045889;28;20223;-83
2022/01/02 08:00:21;;;;;;;9.32;7.28;;;6.10;99.90;;;;;;5046772;28;20234;-83
2022/01/02 08:02:47;;;;;;;11.85;7.38;;;6.20;99.90;;;;;;5053700;28;20212;-84
2022/01/02 08:05:14;;;;;;;9.00;7.15;;;6.20;99.90;;;;;;5057909;28;20211;-81
2022/01/02 08:07:42;;;;;;;10.23;7.03;;;6.10;99.90;;;;;;5057870;28;20634;-84
2022/01/02 08:10:10;;;;;;;10.65;7.25;;;6.20;99.90;;;;;;5044663;28;20231;-82
2022/01/02 08:12:37;;;;;;;12.20;7.93;;;6.20;99.90;;;;;;5040045;28;20298;-83
2022/01/02 08:15:06;;;;;;;10.48;7.43;;;6.30;99.90;;;;;;5039567;28;20250;-82
2022/01/02 08:17:33;;;;;;;11.32;7.75;;;6.40;99.90;;;;;;5047978;28;20260;-83
2022/01/02 08:20:00;;;;;;;10.80;8.50;;;6.50;99.90;;;;;;5048329;28;20675;-82
2022/01/02 08:22:27;;;;;;;9.13;7.70;;;6.50;99.90;;;;;;5049086;28;20211;-82
2022/01/02 08:24:54;;;;;;;10.07;7.85;;;6.60;99.90;;;;;;5042267;28;20246;-83
2022/01/02 08:27:23;;;;;;;9.68;8.00;;;6.60;99.90;;;;;;5043106;28;20253;-83
2022/01/02 08:29:52;;;;;;;11.15;7.47;;;6.70;99.90;;;;;;5043941;28;20242;-82
2022/01/02 08:32:20;;;;;;;12.18;8.25;;;6.80;99.90;;;;;;5042786;28;20203;-83
2022/01/02 08:34:48;;;;;;;9.57;8.07;;;6.80;99.90;;;;;;5046601;28;20289;-84
2022/01/02 08:37:15;;;;;;;11.18;8.35;;;6.90;99.90;;;;;;5044419;28;20210;-82
2022/01/02 08:39:43;;;;;;;11.95;7.70;;;7.00;99.90;;;;;;5043036;28;20211;-82
2022/01/02 08:42:11;;;;;;;11.25;8.30;;;7.00;99.90;;;;;;5043730;28;20282;-84
2022/01/02 08:44:39;;;;;;;10.40;7.93;;;7.00;99.90;;;;;;5046110;28;20786;-83
2022/01/02 08:47:06;;;;;;;9.75;7.35;;;7.10;99.90;;;;;;5046489;28;20268;-82
2022/01/02 08:49:35;;;;;;;10.00;8.25;;;7.10;99.90;;;;;;5055284;28;20195;-83
2022/01/02 08:52:02;;;;;;;9.18;7.80;;;7.20;99.90;;;;;;5056372;28;20251;-83
2022/01/02 08:54:29;;;;;;;11.52;8.77;;;7.20;99.90;;;;;;5054527;28;20223;-82
2022/01/02 08:56:56;;;;;;;11.77;8.90;;;7.30;99.90;;;;;;5056731;28;20251;-82
2022/01/02 08:59:24;;;;;;;13.90;7.82;;;7.30;99.90;;;;;;5050625;28;20211;-83
2022/01/02 09:01:51;;;;;;;13.75;9.43;;;7.30;99.90;;;;;;5050812;28;20195;-83
2022/01/02 09:04:18;;;;;;;12.15;9.60;;;7.40;99.90;;;;;;5055493;28;20226;-83
2022/01/02 09:06:47;;;;;;;11.63;8.80;;;7.50;98.80;;;;;;5051908;28;20214;-83
2022/01/02 09:09:14;;;;;;;13.43;9.88;;;7.50;98.20;;;;;;5045364;28;20207;-84
2022/01/02 09:11:41;;;;;;;12.35;9.45;;;7.50;97.10;;;;;;5042915;28;20223;-83
2022/01/02 09:14:08;;;;;;;13.10;10.05;;;7.60;96.30;;;;;;5045351;28;20246;-83
2022/01/02 09:16:35;;;;;;;11.93;9.88;;;7.60;94.90;;;;;;5045429;28;20211;-84
2022/01/02 09:19:02;;;;;;;14.20;9.20;;;7.70;94.30;;;;;;5045706;28;20221;-81
2022/01/02 09:21:29;;;;;;;14.40;10.50;;;7.80;93.30;;;;;;5055538;28;20221;-83
2022/01/02 09:23:58;;;;;;;14.75;9.60;;;7.90;92.70;;;;;;5056750;28;20243;-84
2022/01/02 09:26:24;;;;;;;15.27;10.20;;;7.90;91.80;;;;;;5057300;28;20187;-83
2022/01/02 09:28:51;;;;;;;15.68;10.77;;;8.00;90.90;;;;;;5057212;28;20327;-84
2022/01/02 09:31:18;;;;;;;13.52;9.70;;;8.10;89.80;;;;;;5034769;28;20228;-83
2022/01/02 09:33:45;;;;;;;12.48;9.40;;;8.10;89.10;;;;;;5029987;28;20219;-82
2022/01/02 09:36:12;;;;;;;14.60;9.55;;;8.20;88.50;;;;;;5048524;28;20214;-82
2022/01/02 09:38:39;;;;;;;13.25;9.25;;;8.20;88.30;;;;;;5046030;28;20217;-82
2022/01/02 09:41:07;;;;;;;12.68;9.68;;;8.30;87.60;;;;;;5041551;28;20203;-82
2022/01/02 09:43:34;;;;;;;14.68;10.27;;;8.40;87.10;;;;;;5042698;28;20242;-82
2022/01/02 09:46:03;;;;;;;13.75;9.18;;;8.30;86.70;;;;;;5040992;28;20199;-81
2022/01/02 09:48:31;;;;;;;14.40;9.75;;;8.40;86.40;;;;;;5041895;28;20242;-82
2022/01/02 09:50:58;;;;;;;13.50;9.35;;;8.40;86.00;;;;;;5057084;28;20207;-85
2022/01/02 09:53:25;;;;;;;14.13;9.73;;;8.40;85.80;;;;;;5057265;28;20275;-83
2022/01/02 09:55:54;;;;;;;12.88;10.40;;;8.30;85.30;;;;;;5056752;28;20221;-83
2022/01/02 09:58:22;;;;;;;13.45;10.70;;;8.30;86.30;;;;;;5057436;28;20217;-83
2022/01/02 10:00:49;;;;;;;13.93;10.02;;;8.20;86.40;;;;;;5051136;28;20242;-80
2022/01/02 10:03:18;;;;;;;13.80;9.63;;;8.20;86.60;;;;;;5043485;28;20207;-81
2022/01/02 10:05:54;;;;;;;11.75;8.50;;;8.20;86.50;;;;;;5043574;28;20203;-81
2022/01/02 10:08:23;;;;;;;13.52;9.82;;;8.20;87.60;;;;;;5042689;28;20205;-82
2022/01/02 10:10:59;;;;;;;14.15;9.40;;;8.30;87.00;;;;;;5040157;28;20318;-81
2022/01/02 10:13:45;;;;;;;11.48;8.13;;;8.40;86.00;;;;;;5040787;28;20226;-82
2022/01/02 10:16:24;;;;;;;11.35;8.93;;;8.40;85.70;;;;;;5043757;28;20226;-82
2022/01/02 10:18:53;;;;;;;13.73;9.85;;;8.40;85.20;;;;;;5043462;28;20241;-83
2022/01/02 10:21:31;;;;;;;12.50;9.63;;;8.50;84.50;;;;;;5035718;28;20199;-82
2022/01/02 10:24:12;;;;;;;11.85;9.40;;;8.50;84.40;;;;;;5047764;28;20289;-81
2022/01/02 10:26:40;;;;;;;10.82;7.95;;;8.60;84.20;;;;;;5047040;28;20203;-82
2022/01/02 10:29:12;;;;;;;13.93;7.30;;;8.60;82.50;;;;;;5048540;28;20227;-81
2022/01/02 10:31:40;;;;;;;12.80;7.65;;;8.80;82.20;;;;;;5046791;28;20216;-82
2022/01/02 10:34:08;;;;;;;8.95;7.32;;;8.80;80.00;;;;;;5044234;28;20258;-81
2022/01/02 10:36:37;;;;;;;10.57;7.60;;;8.70;80.40;;;;;;5041361;28;20207;-83
2022/01/02 10:39:09;;;;;;;9.27;7.63;;;8.80;80.60;;;;;;5041914;28;20314;-82
2022/01/02 10:41:38;;;;;;;11.55;8.57;;;8.70;79.90;;;;;;5039722;28;20203;-81
2022/01/02 10:44:20;;;;;;;9.85;7.88;;;8.70;80.40;;;;;;5033686;28;20231;-82
2022/01/02 10:47:07;;;;;;;10.50;8.20;;;8.80;80.60;;;;;;5027725;28;20200;-81
2022/01/02 10:49:55;;;;;;;11.43;8.50;;;8.90;80.60;;;;;;5041435;28;20199;-82
2022/01/02 10:52:23;;;;;;;13.27;8.82;;;8.80;79.70;;;;;;5045009;28;20254;-83
2022/01/02 10:54:51;;;;;;;10.48;8.60;;;8.90;81.20;;;;;;5045610;28;20223;-82
2022/01/02 10:57:18;;;;;;;8.95;7.50;;;9.20;80.10;;;;;;5045210;28;20283;-81
2022/01/02 10:59:47;;;;;;;12.32;7.30;;;9.40;78.70;;;;;;5045310;28;20226;-81
2022/01/02 11:02:15;;;;;;;8.82;6.63;;;9.60;76.90;;;;;;5042829;28;20203;-82
2022/01/02 11:04:47;;;;;;;9.60;7.85;;;9.70;77.00;;;;;;5047192;28;20266;-82
2022/01/02 11:07:20;;;;;;;8.98;6.78;;;9.80;75.00;;;;;;5054931;28;20204;-84
2022/01/02 11:09:49;;;;;;;8.93;7.03;;;10.00;72.70;;;;;;5055360;28;20211;-83
2022/01/02 11:12:16;;;;;;;11.18;7.55;;;10.10;72.10;;;;;;5055953;28;20230;-83
2022/01/02 11:14:44;;;;;;;9.73;6.95;;;10.10;71.20;;;;;;5053945;28;20286;-84
2022/01/02 11:17:13;;;;;;;9.77;7.35;;;10.00;70.50;;;;;;5055321;28;20411;-83
2022/01/02 11:19:40;;;;;;;7.90;6.40;;;9.90;72.10;;;;;;5049523;28;20293;-83
2022/01/02 11:22:12;;;;;;;7.68;6.20;;;9.90;71.40;;;;;;5047123;28;20293;-81
2022/01/02 11:24:47;;;;;;;7.90;6.60;;;9.90;71.70;;;;;;5047334;28;20231;-81
2022/01/02 11:27:22;;;;;;;9.40;6.50;;;9.90;71.60;;;;;;5043952;28;20412;-81
2022/01/02 11:29:49;;;;;;;9.52;6.28;;;9.80;70.30;;;;;;5039212;28;20195;-83
2022/01/02 11:32:26;;;;;;;9.48;6.28;;;9.80;71.20;;;;;;5040564;28;20223;-84
2022/01/02 11:34:55;;;;;;;9.10;6.00;;;9.80;71.70;;;;;;5037254;28;20219;-80
2022/01/02 11:37:27;;;;;;;6.32;5.70;;;9.90;71.80;;;;;;5041962;28;20238;-82
2022/01/02 11:39:56;;;;;;;8.50;6.20;;;10.00;69.80;;;;;;5041468;28;20257;-81
2022/01/02 11:42:55;;;;;;;6.25;5.32;;;10.10;69.90;;;;;;5043855;28;20219;-80
2022/01/02 11:49:05;;;;;;;6.00;5.05;;;10.40;67.90;;;;;;5015156;28;20815;-82
2022/01/02 11:52:12;;;;;;;8.18;5.15;;;10.50;68.00;;;;;;5047193;28;20223;-84
2022/01/02 11:54:43;;;;;;;5.88;4.43;;;10.60;66.80;;;;;;5049057;28;20231;-84
2022/01/02 11:57:46;;;;;;;6.40;4.72;;;10.70;66.90;;;;;;5050237;28;20219;-83
2022/01/02 12:00:37;;;;;;;6.95;4.75;;;10.90;65.10;;;;;;5030314;28;20639;-83
2022/01/02 12:03:05;;;;;;;4.40;4.00;;;11.10;64.10;;;;;;5048012;28;20234;-84
2022/01/02 12:05:33;;;;;;;5.47;4.38;;;11.20;62.40;;;;;;5050980;28;20211;-83
2022/01/02 12:08:01;;;;;;;7.38;5.60;;;11.30;61.10;;;;;;5052969;28;20199;-83
2022/01/02 12:10:32;;;;;;;5.78;4.75;;;11.50;60.00;;;;;;5051887;28;20219;-82
2022/01/02 12:13:20;;;;;;;7.38;5.55;;;11.70;59.60;;;;;;5052770;28;20314;-84
2022/01/02 12:16:07;;;;;;;6.25;4.57;;;11.80;58.70;;;;;;5052541;28;20202;-83
2022/01/02 12:18:39;;;;;;;6.47;5.05;;;11.90;57.20;;;;;;5054069;28;20207;-82
2022/01/02 12:21:11;;;;;;;5.18;4.20;;;12.00;56.70;;;;;;5053409;28;20209;-82
2022/01/02 12:23:53;;;;;;;3.90;3.47;;;12.10;55.50;;;;;;5054600;28;20285;-82
2022/01/02 12:26:22;;;;;;;3.40;3.10;;;12.20;55.20;;;;;;5057426;28;20208;-83
2022/01/02 12:28:56;;;;;;;4.50;3.60;;;12.30;54.10;;;;;;5057791;28;20187;-84
2022/01/02 12:31:27;;;;;;;3.63;3.15;;;12.40;53.70;;;;;;5058588;28;20226;-79
2022/01/02 12:33:58;;;;;;;3.20;2.90;;;12.50;53.10;;;;;;5059305;28;20279;-81
2022/01/02 12:36:26;;;;;;;3.63;2.90;;;12.60;51.70;;;;;;5059068;28;20306;-82
2022/01/02 12:38:54;;;;;;;7.47;2.92;;;12.70;51.70;;;;;;5059143;28;20226;-83
2022/01/02 12:41:24;;;;;;;2.55;2.35;;;12.80;50.90;;;;;;5058772;28;20249;-82
2022/01/02 12:43:53;;;;;;;3.45;3.15;;;12.80;49.20;;;;;;5058655;28;20230;-80
2022/01/02 12:46:38;;;;;;;3.03;2.50;;;13.00;49.00;;;;;;5058276;28;20187;-81
2022/01/02 12:49:06;;;;;;;3.25;2.50;;;13.10;47.90;;;;;;5056037;28;20211;-80
2022/01/02 12:51:36;;;;;;;2.42;2.22;;;13.20;47.40;;;;;;5047791;28;20241;-80
2022/01/02 12:54:05;;;;;;;2.92;2.63;;;13.30;46.90;;;;;;5042269;28;20256;-79
2022/01/02 12:56:37;;;;;;;4.35;2.88;;;13.40;46.30;;;;;;5039805;28;20207;-79
2022/01/02 12:59:20;;;;;;;3.15;2.60;;;13.50;45.30;;;;;;5049061;28;20202;-82
2022/01/02 13:01:56;;;;;;;3.38;2.85;;;13.60;45.40;;;;;;5049749;28;20697;-80
2022/01/02 13:04:25;;;;;;;2.40;2.20;;;13.50;45.00;;;;;;5053829;28;20214;-82
2022/01/02 13:06:55;;;;;;;4.32;2.60;;;13.60;44.70;;;;;;5055070;28;20226;-84
2022/01/02 13:09:24;;;;;;;2.95;2.50;;;13.50;44.80;;;;;;5053174;28;20238;-81
2022/01/02 13:11:51;;;;;;;3.53;3.10;;;13.50;45.00;;;;;;5050657;28;20313;-81
2022/01/02 13:14:49;;;;;;;2.97;2.67;;;13.30;45.10;;;;;;5052568;28;20286;-81
2022/01/02 13:17:20;;;;;;;3.10;2.78;;;13.20;45.50;;;;;;5052346;28;20218;-81
2022/01/02 13:19:49;;;;;;;3.60;3.28;;;13.10;46.20;;;;;;5052714;28;20214;-82
2022/01/02 13:22:21;;;;;;;3.90;2.88;;;13.10;45.70;;;;;;5038591;28;20208;-82
2022/01/02 13:24:50;;;;;;;3.80;2.92;;;13.10;45.40;;;;;;5026593;28;20235;-81
2022/01/02 13:27:17;;;;;;;4.93;3.03;;;13.10;45.30;;;;;;5037365;28;20208;-81
2022/01/02 13:29:56;;;;;;;3.42;2.65;;;13.10;45.30;;;;;;5040774;28;20222;-83
2022/01/02 13:32:23;;;;;;;3.38;3.05;;;13.10;45.50;;;;;;5056832;28;20218;-82
2022/01/02 13:35:06;;;;;;;4.65;3.25;;;13.00;45.50;;;;;;5047991;28;20759;-82
2022/01/02 13:37:40;;;;;;;3.10;2.60;;;12.90;45.70;;;;;;5055411;28;20199;-80
2022/01/02 13:40:10;;;;;;;5.50;3.25;;;12.80;46.50;;;;;;5057255;28;20217;-83
2022/01/02 13:42:42;;;;;;;4.63;3.75;;;12.60;47.20;;;;;;5055620;28;20302;-81
2022/01/02 13:45:15;;;;;;;5.40;4.05;;;12.40;48.50;;;;;;5054490;28;20338;-81
2022/01/02 13:47:42;;;;;;;7.95;4.45;;;12.10;49.70;;;;;;5053648;28;20213;-81
2022/01/02 13:50:27;;;;;;;5.00;3.95;;;12.00;50.40;;;;;;5054737;28;20239;-81
2022/01/02 13:52:58;;;;;;;4.43;4.03;;;11.90;51.00;;;;;;5051223;28;20234;-80
2022/01/02 13:55:31;;;;;;;8.38;3.85;;;11.90;51.00;;;;;;5044216;28;20208;-81
2022/01/02 13:57:59;;;;;;;4.28;3.88;;;11.90;51.00;;;;;;5038343;28;20241;-81
2022/01/02 14:00:29;;;;;;;8.35;3.75;;;12.00;51.10;;;;;;5040404;28;20280;-81
2022/01/02 14:02:56;;;;;;;3.78;3.47;;;12.00;50.70;;;;;;5039254;28;20238;-82
2022/01/02 14:05:24;;;;;;;4.53;4.00;;;12.00;50.70;;;;;;5041067;28;20233;-80
2022/01/02 14:07:52;;;;;;;7.80;4.20;;;12.10;50.40;;;;;;5045581;28;20195;-81
2022/01/02 14:10:29;;;;;;;5.85;4.10;;;12.10;50.60;;;;;;5101556;22;20241;-86
2022/01/02 14:12:59;;;;;;;4.30;3.90;;;12.10;51.10;;;;;;5046158;28;20229;-87
2022/01/02 14:15:29;;;;;;;6.68;5.05;;;12.20;50.50;;;;;;5044952;28;20264;-84
2022/01/02 14:18:08;;;;;;;7.03;3.85;;;12.30;50.20;;;;;;5044785;28;20207;-88
2022/01/02 14:20:49;;;;;;;6.82;4.72;;;12.30;50.50;;;;;;5045227;28;20226;-87
2022/01/02 14:23:16;;;;;;;7.05;4.15;;;12.40;51.20;;;;;;5047797;28;20210;-84
2022/01/02 14:25:52;;;;;;;7.43;4.20;;;12.50;50.80;;;;;;5055310;28;20198;-83
2022/01/02 14:28:21;;;;;;;4.47;4.07;;;12.40;50.60;;;;;;5036615;28;20200;-83
2022/01/02 14:30:52;;;;;;;6.82;4.55;;;12.50;50.70;;;;;;5034553;28;20238;-82
2022/01/02 14:33:23;;;;;;;5.35;3.75;;;12.50;50.80;;;;;;5023310;28;20240;-83
2022/01/02 14:35:53;;;;;;;7.28;4.50;;;12.40;51.50;;;;;;5023070;28;20322;-82